createdAt,value
2023-01-24T00:01:55.319Z,7.76
2023-01-24T00:04:21.896Z,7.76
2023-01-24T00:06:48.476Z,7.91
2023-01-24T00:09:15.103Z,7.89
2023-01-24T00:11:41.811Z,7.90
2023-01-24T00:14:10.799Z,7.93
2023-01-24T00:16:37.468Z,7.92
2023-01-24T00:19:04.180Z,8.05
2023-01-24T00:21:30.785Z,7.95
2023-01-24T00:23:57.425Z,8.00
2023-01-24T00:26:24.734Z,8.01
2023-01-24T00:28:51.829Z,8.03
2023-01-24T00:31:18.844Z,8.00
2023-01-24T00:33:47.061Z,7.95
2023-01-24T00:36:14.123Z,7.94
2023-01-24T00:38:40.993Z,7.97
2023-01-24T00:41:07.937Z,8.14
2023-01-24T00:43:34.613Z,8.24
2023-01-24T00:46:01.501Z,8.18
2023-01-24T00:48:32.631Z,8.21
2023-01-24T00:50:59.944Z,8.20
2023-01-24T00:53:27.367Z,8.14
2023-01-24T00:55:55.882Z,8.18
2023-01-24T00:58:23.159Z,8.23
2023-01-24T01:00:49.826Z,8.24
2023-01-24T01:03:18.243Z,8.39
2023-01-24T01:05:45.466Z,8.39
2023-01-24T01:08:12.378Z,8.42
2023-01-24T01:10:39.598Z,8.43
2023-01-24T01:13:06.402Z,8.41
2023-01-24T01:15:33.089Z,8.52
2023-01-24T01:17:59.765Z,8.57
2023-01-24T01:20:27.807Z,8.47
2023-01-24T01:22:54.484Z,8.46
2023-01-24T01:25:21.478Z,8.56
2023-01-24T01:27:48.197Z,8.58
2023-01-24T01:30:14.879Z,8.57
2023-01-24T01:32:41.499Z,8.58
2023-01-24T01:35:08.457Z,8.65
2023-01-24T01:37:35.009Z,8.69
2023-01-24T01:40:02.790Z,8.64
2023-01-24T01:42:50.662Z,8.69
2023-01-24T01:45:36.143Z,8.77
2023-01-24T01:48:21.039Z,8.75
2023-01-24T01:50:54.098Z,8.75
2023-01-24T01:56:06.937Z,8.58
2023-01-24T01:58:34.500Z,8.48
2023-01-24T02:01:01.307Z,8.43
2023-01-24T02:03:40.004Z,8.40
2023-01-24T02:06:09.260Z,8.35
2023-01-24T02:08:35.935Z,8.45
2023-01-24T02:11:21.312Z,8.46
2023-01-24T02:13:48.125Z,8.48
2023-01-24T02:16:15.664Z,8.55
2023-01-24T02:18:43.378Z,8.58
2023-01-24T02:21:11.835Z,8.65
2023-01-24T02:23:50.754Z,8.69
2023-01-24T02:26:24.322Z,8.73
2023-01-24T02:28:55.680Z,8.68
2023-01-24T02:31:22.599Z,8.68
2023-01-24T02:33:49.605Z,8.70
2023-01-24T02:36:28.751Z,8.67
2023-01-24T02:39:01.871Z,8.81
2023-01-24T02:41:39.889Z,8.77
2023-01-24T02:44:10.691Z,8.84
2023-01-24T02:46:37.740Z,8.74
2023-01-24T02:49:07.855Z,8.83
2023-01-24T02:51:53.023Z,8.86
2023-01-24T02:54:19.650Z,8.84
2023-01-24T02:57:04.654Z,8.82
2023-01-24T02:59:31.478Z,8.85
2023-01-24T03:01:58.702Z,8.87
2023-01-24T03:04:26.716Z,8.88
2023-01-24T03:06:53.463Z,8.83
2023-01-24T03:09:34.592Z,8.87
2023-01-24T03:15:41.608Z,8.88
2023-01-24T03:18:27.225Z,8.87
2023-01-24T03:21:12.531Z,8.83
2023-01-24T03:23:57.971Z,8.90
2023-01-24T03:26:43.351Z,8.99
2023-01-24T03:29:29.632Z,8.91
2023-01-24T03:32:15.628Z,8.96
2023-01-24T03:34:51.275Z,9.01
2023-01-24T03:37:41.054Z,8.91
2023-01-24T03:40:11.715Z,8.95
2023-01-24T03:42:47.991Z,8.80
2023-01-24T03:45:18.391Z,8.74
2023-01-24T03:47:57.106Z,8.71
2023-01-24T03:50:45.932Z,8.68
2023-01-24T03:53:13.624Z,8.68
2023-01-24T03:55:41.923Z,8.74
2023-01-24T03:58:09.201Z,8.79
2023-01-24T04:00:36.411Z,8.83
2023-01-24T04:03:09.505Z,8.85
2023-01-24T04:05:36.628Z,8.86
2023-01-24T04:08:03.845Z,8.96
2023-01-24T04:10:31.165Z,8.88
2023-01-24T04:12:58.889Z,8.88
2023-01-24T04:15:27.806Z,8.88
2023-01-24T04:18:13.637Z,8.86
2023-01-24T04:20:40.530Z,8.89
2023-01-24T04:23:08.916Z,8.87
2023-01-24T04:25:37.698Z,8.82
2023-01-24T04:28:04.698Z,8.79
2023-01-24T04:30:33.659Z,8.78
2023-01-24T04:33:02.731Z,8.86
2023-01-24T04:35:30.510Z,8.79
2023-01-24T04:38:03.735Z,8.79
2023-01-24T04:40:41.575Z,8.81
2023-01-24T04:43:08.461Z,8.86
2023-01-24T04:45:35.700Z,8.98
2023-01-24T04:48:03.628Z,9.12
2023-01-24T04:50:31.328Z,9.17
2023-01-24T04:52:58.025Z,9.25
2023-01-24T04:55:25.162Z,9.29
2023-01-24T04:57:52.880Z,9.27
2023-01-24T05:00:19.597Z,9.27
2023-01-24T05:02:46.628Z,9.24
2023-01-24T05:05:15.782Z,9.16
2023-01-24T05:07:43.904Z,9.14
2023-01-24T05:10:15.412Z,9.09
2023-01-24T05:12:41.969Z,8.95
2023-01-24T05:15:19.004Z,8.94
2023-01-24T05:17:46.011Z,8.84
2023-01-24T05:20:17.135Z,8.77
2023-01-24T05:22:47.926Z,8.71
2023-01-24T05:25:16.552Z,8.70
2023-01-24T05:27:43.657Z,8.82
2023-01-24T05:30:13.218Z,8.85
2023-01-24T05:32:40.446Z,8.86
2023-01-24T05:35:07.978Z,8.82
2023-01-24T05:37:37.541Z,8.76
2023-01-24T05:40:05.251Z,8.83
2023-01-24T05:42:32.897Z,8.78
2023-01-24T05:44:59.434Z,8.80
2023-01-24T05:47:26.162Z,8.69
2023-01-24T05:49:52.986Z,8.63
2023-01-24T05:52:22.563Z,8.54
2023-01-24T05:54:53.184Z,8.58
2023-01-24T05:57:29.239Z,8.60
2023-01-24T06:00:14.801Z,8.63
2023-01-24T06:02:41.520Z,8.66
2023-01-24T06:05:09.681Z,8.49
2023-01-24T06:07:36.678Z,8.41
2023-01-24T06:10:03.339Z,8.27
2023-01-24T06:12:39.410Z,8.25
2023-01-24T06:15:06.354Z,8.10
2023-01-24T06:17:33.165Z,8.09
2023-01-24T06:19:59.907Z,8.06
2023-01-24T06:22:29.712Z,7.92
2023-01-24T06:24:56.628Z,7.85
2023-01-24T06:27:27.131Z,7.90
2023-01-24T06:29:53.950Z,7.95
2023-01-24T06:32:26.550Z,8.13
2023-01-24T06:35:22.761Z,8.12
2023-01-24T06:37:53.326Z,8.02
2023-01-24T06:40:21.940Z,8.01
2023-01-24T06:42:49.038Z,7.98
2023-01-24T06:45:15.771Z,7.88
2023-01-24T06:47:43.704Z,7.87
2023-01-24T06:50:18.300Z,7.93
2023-01-24T06:52:49.672Z,8.13
2023-01-24T06:55:19.196Z,8.33
2023-01-24T06:57:51.040Z,8.33
2023-01-24T07:00:23.403Z,8.48
2023-01-24T07:02:57.597Z,8.50
2023-01-24T07:05:24.593Z,8.42
2023-01-24T07:07:51.385Z,8.44
2023-01-24T07:10:18.112Z,8.34
2023-01-24T07:12:44.731Z,8.31
2023-01-24T07:15:11.607Z,8.27
2023-01-24T07:17:38.597Z,8.22
2023-01-24T07:20:05.583Z,8.21
2023-01-24T07:23:01.007Z,8.24
2023-01-24T07:26:03.264Z,8.31
2023-01-24T07:36:34.259Z,8.52
2023-01-24T07:39:00.880Z,8.53
2023-01-24T07:41:27.680Z,8.56
2023-01-24T07:43:56.468Z,8.59
2023-01-24T07:46:23.160Z,8.67
2023-01-24T07:48:49.811Z,8.65
2023-01-24T07:51:16.445Z,8.66
2023-01-24T07:53:43.084Z,8.64
2023-01-24T07:56:20.760Z,8.75
2023-01-24T07:58:51.130Z,8.77
2023-01-24T08:01:20.688Z,8.86
2023-01-24T08:03:47.841Z,8.92
2023-01-24T08:06:14.417Z,8.82
2023-01-24T08:08:41.029Z,8.79
2023-01-24T08:11:08.083Z,8.84
2023-01-24T08:13:43.828Z,8.96
2023-01-24T08:16:12.182Z,9.04
2023-01-24T08:18:40.084Z,9.19
2023-01-24T08:21:06.759Z,9.21
2023-01-24T08:23:33.455Z,9.25
2023-01-24T08:26:04.321Z,9.29
2023-01-24T08:28:32.282Z,9.35
2023-01-24T08:30:59.591Z,9.35
2023-01-24T08:33:27.817Z,9.29
2023-01-24T08:35:54.379Z,9.26
2023-01-24T08:38:22.172Z,9.14
2023-01-24T08:40:50.485Z,9.13
2023-01-24T08:43:17.884Z,9.10
2023-01-24T08:45:44.542Z,9.28
2023-01-24T08:48:11.195Z,9.59
2023-01-24T08:50:38.016Z,9.66
2023-01-24T08:53:04.769Z,9.58
2023-01-24T08:55:32.432Z,9.51
2023-01-24T08:58:03.228Z,9.51
2023-01-24T09:00:30.315Z,9.50
2023-01-24T09:03:01.376Z,9.57
2023-01-24T09:05:28.702Z,9.60
2023-01-24T09:07:55.268Z,9.44
2023-01-24T09:10:21.959Z,9.43
2023-01-24T09:12:48.497Z,9.50
2023-01-24T09:15:15.266Z,9.51
2023-01-24T09:17:41.887Z,9.48
2023-01-24T09:20:11.724Z,9.52
2023-01-24T09:22:38.348Z,9.49
2023-01-24T09:25:05.076Z,9.53
2023-01-24T09:27:31.723Z,9.54
2023-01-24T09:29:58.270Z,9.54
2023-01-24T09:32:24.862Z,9.75
2023-01-24T09:34:51.482Z,9.73
2023-01-24T09:37:19.188Z,9.77
2023-01-24T09:39:45.822Z,9.92
2023-01-24T09:42:30.999Z,9.99
2023-01-24T09:44:57.630Z,10.11
2023-01-24T09:47:31.971Z,10.07
2023-01-24T09:50:05.869Z,10.08
2023-01-24T09:52:37.282Z,10.12
2023-01-24T09:55:07.451Z,10.13
2023-01-24T09:57:43.134Z,10.31
2023-01-24T10:00:19.109Z,10.56
2023-01-24T10:02:45.741Z,10.59
2023-01-24T10:05:17.090Z,10.59
2023-01-24T10:07:49.712Z,10.65
2023-01-24T10:10:22.903Z,10.62
2023-01-24T10:13:08.354Z,10.77
2023-01-24T10:15:34.955Z,10.97
2023-01-24T10:18:21.754Z,11.30
2023-01-24T10:21:08.927Z,11.34
2023-01-24T10:23:39.363Z,11.84
2023-01-24T10:26:20.239Z,12.26
2023-01-24T10:28:55.656Z,12.35
2023-01-24T10:31:34.041Z,12.50
2023-01-24T10:34:19.178Z,12.65
2023-01-24T10:37:04.479Z,12.70
2023-01-24T10:39:31.840Z,13.13
2023-01-24T10:41:58.941Z,13.43
2023-01-24T10:44:27.527Z,13.42
2023-01-24T10:47:03.232Z,13.41
2023-01-24T10:49:31.837Z,13.43
2023-01-24T10:52:09.992Z,13.75
2023-01-24T10:54:56.323Z,13.69
2023-01-24T10:57:36.149Z,13.84
2023-01-24T11:00:20.270Z,13.43
2023-01-24T11:02:51.364Z,13.39
2023-01-24T11:05:18.905Z,13.05
2023-01-24T11:07:53.002Z,13.02
2023-01-24T11:10:21.576Z,12.98
2023-01-24T11:12:49.479Z,13.09
2023-01-24T11:15:28.441Z,12.55
2023-01-24T11:17:58.205Z,12.61
2023-01-24T11:20:32.399Z,12.55
2023-01-24T11:23:03.294Z,12.65
2023-01-24T11:25:30.100Z,12.49
2023-01-24T11:27:56.627Z,12.37
2023-01-24T11:30:23.735Z,12.28
2023-01-24T11:33:12.427Z,12.30
2023-01-24T11:35:42.958Z,12.30
2023-01-24T11:38:27.543Z,12.38
2023-01-24T11:41:00.653Z,12.46
2023-01-24T11:43:35.939Z,12.69
2023-01-24T11:46:08.763Z,12.79
2023-01-24T11:48:55.827Z,12.81
2023-01-24T11:51:31.385Z,12.74
2023-01-24T11:54:12.936Z,13.02
2023-01-24T11:56:45.661Z,13.10
2023-01-24T11:59:31.019Z,12.90
2023-01-24T12:02:10.712Z,12.72
2023-01-24T12:04:49.465Z,12.56
2023-01-24T12:07:18.832Z,12.65
2023-01-24T12:09:58.707Z,12.56
2023-01-24T12:12:31.022Z,12.57
2023-01-24T12:15:16.383Z,12.57
2023-01-24T12:17:42.969Z,12.33
2023-01-24T12:20:30.656Z,12.22
2023-01-24T12:23:00.491Z,12.21
2023-01-24T12:25:35.285Z,12.16
2023-01-24T12:28:05.353Z,12.20
2023-01-24T12:30:32.032Z,12.13
2023-01-24T12:33:17.212Z,12.21
2023-01-24T12:35:48.432Z,12.17
2023-01-24T12:38:18.235Z,12.21
2023-01-24T12:40:47.988Z,12.16
2023-01-24T12:43:14.581Z,12.19
2023-01-24T12:45:41.194Z,12.24
2023-01-24T12:48:40.133Z,12.20
2023-01-24T12:51:09.768Z,12.19
2023-01-24T12:53:45.948Z,12.25
2023-01-24T12:56:19.338Z,12.30
2023-01-24T12:58:49.668Z,12.31
2023-01-24T13:01:27.154Z,12.27
2023-01-24T13:04:12.657Z,12.25
2023-01-24T13:06:39.241Z,12.34
2023-01-24T13:09:05.915Z,12.38
2023-01-24T13:11:33.803Z,12.40
2023-01-24T13:14:06.632Z,12.39
2023-01-24T13:16:35.990Z,12.48
2023-01-24T13:19:02.586Z,12.47
2023-01-24T13:21:49.480Z,12.45
2023-01-24T13:24:32.933Z,12.40
2023-01-24T13:27:11.209Z,12.38
2023-01-24T13:29:47.208Z,12.45
2023-01-24T13:32:17.730Z,12.47
2023-01-24T13:34:47.929Z,12.42
2023-01-24T13:37:19.188Z,12.48
2023-01-24T13:39:48.254Z,12.50
2023-01-24T13:42:38.072Z,12.61
2023-01-24T13:45:35.490Z,12.75
2023-01-24T13:48:04.228Z,12.87
2023-01-24T13:50:31.952Z,12.92
2023-01-24T13:53:01.980Z,12.97
2023-01-24T13:55:30.751Z,13.03
2023-01-24T13:58:10.387Z,13.08
2023-01-24T14:00:43.193Z,13.16
2023-01-24T14:03:20.471Z,13.27
2023-01-24T14:05:49.242Z,13.19
2023-01-24T14:08:36.167Z,13.22
2023-01-24T14:11:05.848Z,13.08
2023-01-24T14:13:50.558Z,12.92
2023-01-24T14:16:29.120Z,12.83
2023-01-24T14:18:55.838Z,12.82
2023-01-24T14:21:25.120Z,12.68
2023-01-24T14:23:58.362Z,12.59
2023-01-24T14:26:28.675Z,12.41
2023-01-24T14:28:58.956Z,12.32
2023-01-24T14:31:25.634Z,12.31
2023-01-24T14:33:59.586Z,12.24
2023-01-24T14:36:34.575Z,12.18
2023-01-24T14:39:21.601Z,12.37
2023-01-24T14:41:49.151Z,12.35
2023-01-24T14:44:17.100Z,12.23
2023-01-24T14:46:51.688Z,12.26
2023-01-24T14:49:25.872Z,12.15
2023-01-24T14:51:52.819Z,12.17
2023-01-24T14:54:23.791Z,12.15
2023-01-24T14:56:50.612Z,12.18
2023-01-24T14:59:21.467Z,12.10
2023-01-24T15:01:52.497Z,11.96
2023-01-24T15:04:21.913Z,11.95
2023-01-24T15:07:03.905Z,11.96
2023-01-24T15:09:31.029Z,11.88
2023-01-24T15:11:57.628Z,11.71
2023-01-24T15:14:24.524Z,11.49
2023-01-24T15:16:55.144Z,11.34
2023-01-24T15:19:25.908Z,11.24
2023-01-24T15:21:54.686Z,11.16
2023-01-24T15:24:23.901Z,11.06
2023-01-24T15:26:50.675Z,10.98
2023-01-24T15:29:35.981Z,10.94
2023-01-24T15:32:03.222Z,10.88
2023-01-24T15:34:31.737Z,10.88
2023-01-24T15:37:13.946Z,10.89
2023-01-24T15:39:41.093Z,10.99
2023-01-24T15:42:31.727Z,10.97
2023-01-24T15:44:58.373Z,10.98
2023-01-24T15:47:44.297Z,10.96
2023-01-24T15:50:39.580Z,10.83
2023-01-24T15:53:28.833Z,10.72
2023-01-24T15:56:04.573Z,10.61
2023-01-24T15:58:32.233Z,10.54
2023-01-24T16:00:59.575Z,10.48
2023-01-24T16:03:26.306Z,10.39
2023-01-24T16:05:53.280Z,10.34
2023-01-24T16:08:21.642Z,10.29
2023-01-24T16:10:48.906Z,10.21
2023-01-24T16:13:22.746Z,10.20
2023-01-24T16:15:49.857Z,10.15
2023-01-24T16:18:18.243Z,10.23
2023-01-24T16:20:46.202Z,10.45
2023-01-24T16:23:12.796Z,10.47
2023-01-24T16:25:41.319Z,10.48
2023-01-24T16:28:16.673Z,10.43
2023-01-24T16:30:43.326Z,10.26
2023-01-24T16:33:09.897Z,10.16
2023-01-24T16:35:36.562Z,10.22
2023-01-24T16:38:05.223Z,10.15
2023-01-24T16:40:32.435Z,10.09
2023-01-24T16:43:02.984Z,10.00
2023-01-24T16:45:30.060Z,9.99
2023-01-24T16:47:57.130Z,9.80
2023-01-24T16:50:23.855Z,9.71
2023-01-24T16:52:50.638Z,9.86
2023-01-24T16:55:17.374Z,9.87
2023-01-24T16:57:44.918Z,9.71
2023-01-24T17:00:13.535Z,9.65
2023-01-24T17:02:44.162Z,9.69
2023-01-24T17:05:11.796Z,9.55
2023-01-24T17:07:38.846Z,9.49
2023-01-24T17:10:09.171Z,9.44
2023-01-24T17:12:37.914Z,9.42
2023-01-24T17:15:04.835Z,9.37
2023-01-24T17:17:31.700Z,9.39
2023-01-24T17:19:58.575Z,9.45
2023-01-24T17:22:25.588Z,9.48
2023-01-24T17:24:52.949Z,9.52
2023-01-24T17:31:14.088Z,9.16
2023-01-24T17:33:41.151Z,9.11
2023-01-24T17:36:08.117Z,9.06
2023-01-24T17:41:14.924Z,8.89
2023-01-24T17:43:52.276Z,8.84
2023-01-24T17:46:20.441Z,8.88
2023-01-24T17:48:47.142Z,8.94
2023-01-24T17:51:14.724Z,8.94
2023-01-24T17:53:41.958Z,8.93
2023-01-24T17:56:10.428Z,8.91
2023-01-24T17:58:37.526Z,8.91
2023-01-24T18:01:04.583Z,8.90
2023-01-24T18:03:31.392Z,8.89
2023-01-24T18:05:58.042Z,8.85
2023-01-24T18:08:24.712Z,8.84
2023-01-24T18:10:51.402Z,8.61
2023-01-24T18:13:18.124Z,8.55
2023-01-24T18:15:45.024Z,8.50
2023-01-24T18:18:11.769Z,8.43
2023-01-24T18:20:42.245Z,8.43
2023-01-24T18:23:09.131Z,8.38
2023-01-24T18:25:38.099Z,8.31
2023-01-24T18:28:06.502Z,8.32
2023-01-24T18:30:33.061Z,8.26
2023-01-24T18:32:59.793Z,8.19
2023-01-24T18:35:26.382Z,8.18
2023-01-24T18:37:53.039Z,8.03
2023-01-24T18:40:20.441Z,8.02
2023-01-24T18:42:47.139Z,8.02
2023-01-24T18:45:13.863Z,7.97
2023-01-24T18:47:40.650Z,7.85
2023-01-24T18:50:07.477Z,7.86
2023-01-24T18:52:34.070Z,7.81
2023-01-24T18:55:00.861Z,7.80
2023-01-24T18:57:28.694Z,7.77
2023-01-24T18:59:55.404Z,7.81
2023-01-24T19:04:49.044Z,7.87
2023-01-24T19:07:15.625Z,7.90
2023-01-24T19:09:43.085Z,7.84
2023-01-24T19:12:12.488Z,7.85
2023-01-24T19:14:39.153Z,7.83
2023-01-24T19:17:05.789Z,7.78
2023-01-24T19:19:32.487Z,7.71
2023-01-24T19:21:59.294Z,7.72
2023-01-24T19:24:27.583Z,7.77
2023-01-24T19:26:54.222Z,7.77
2023-01-24T19:29:20.783Z,7.77
2023-01-24T19:31:47.390Z,7.76
2023-01-24T19:34:14.063Z,7.79
2023-01-24T19:36:41.630Z,7.76
2023-01-24T19:39:11.711Z,7.86
2023-01-24T19:41:38.306Z,7.84
2023-01-24T19:44:21.133Z,7.82
2023-01-24T19:46:49.414Z,7.87
2023-01-24T19:49:16.497Z,7.93
2023-01-24T19:51:43.232Z,7.98
2023-01-24T19:54:09.910Z,8.23
2023-01-24T19:56:37.718Z,8.28
2023-01-24T19:59:05.354Z,8.46
2023-01-24T20:01:32.020Z,8.64
2023-01-24T20:04:02.792Z,8.70
2023-01-24T20:06:37.824Z,8.90
2023-01-24T20:09:05.013Z,8.86
2023-01-24T20:11:32.402Z,8.79
2023-01-24T20:13:59.050Z,8.70
2023-01-24T20:16:27.753Z,8.67
2023-01-24T20:18:55.469Z,8.61
2023-01-24T20:21:23.090Z,8.58
2023-01-24T20:23:52.751Z,8.57
2023-01-24T20:26:19.793Z,8.54
2023-01-24T20:28:46.342Z,8.50
2023-01-24T20:31:14.066Z,8.42
2023-01-24T20:33:41.134Z,8.39
2023-01-24T20:36:09.056Z,8.33
2023-01-24T20:38:38.084Z,8.37
2023-01-24T20:41:13.203Z,8.34
2023-01-24T20:43:40.456Z,8.21
2023-01-24T20:46:09.531Z,8.09
2023-01-24T20:48:38.423Z,7.89
2023-01-24T20:51:05.825Z,7.73
2023-01-24T20:53:32.555Z,7.68
2023-01-24T20:56:00.487Z,7.60
2023-01-24T20:58:27.620Z,7.61
2023-01-24T21:00:54.727Z,7.57
2023-01-24T21:03:24.327Z,7.60
2023-01-24T21:05:50.960Z,7.68
2023-01-24T21:08:17.560Z,7.72
2023-01-24T21:10:47.753Z,7.73
2023-01-24T21:13:15.269Z,7.74
2023-01-24T21:15:42.263Z,7.78
2023-01-24T21:18:15.082Z,7.83
2023-01-24T21:20:42.165Z,7.75
2023-01-24T21:23:11.211Z,7.74
2023-01-24T21:25:39.010Z,7.76
2023-01-24T21:28:05.745Z,7.77
2023-01-24T21:30:32.973Z,7.78
2023-01-24T21:32:59.656Z,7.84
2023-01-24T21:35:40.279Z,7.89
2023-01-24T21:38:07.805Z,7.95
2023-01-24T21:40:54.328Z,8.02
2023-01-24T21:43:21.063Z,8.12
2023-01-24T21:45:51.242Z,8.15
2023-01-24T21:48:39.024Z,8.27
2023-01-24T21:51:06.483Z,8.34
2023-01-24T21:53:53.926Z,8.42
2023-01-24T21:56:39.015Z,8.50
2023-01-24T21:59:05.764Z,8.37
2023-01-24T22:01:32.412Z,8.29
2023-01-24T22:03:59.229Z,8.19
2023-01-24T22:06:25.957Z,8.18
2023-01-24T22:08:52.736Z,8.16
2023-01-24T22:11:19.389Z,8.18
2023-01-24T22:13:50.813Z,8.16
2023-01-24T22:16:17.629Z,8.17
2023-01-24T22:18:44.504Z,8.12
2023-01-24T22:21:17.584Z,8.11
2023-01-24T22:23:50.207Z,8.03
2023-01-24T22:26:18.241Z,8.00
2023-01-24T22:28:45.055Z,7.93
2023-01-24T22:31:12.173Z,7.84
2023-01-24T22:33:39.217Z,7.77
2023-01-24T22:36:06.025Z,7.72
2023-01-24T22:38:32.667Z,7.66
2023-01-24T22:40:59.355Z,7.60
2023-01-24T22:43:26.011Z,7.51
2023-01-24T22:45:54.712Z,7.46
2023-01-24T22:48:22.540Z,7.37
2023-01-24T22:50:49.170Z,7.36
2023-01-24T22:53:15.757Z,7.30
2023-01-24T22:55:42.493Z,7.29
2023-01-24T22:58:09.192Z,7.29
2023-01-24T23:00:36.028Z,7.27
2023-01-24T23:03:04.972Z,7.25
2023-01-24T23:05:31.563Z,7.26
2023-01-24T23:07:58.435Z,7.26
2023-01-24T23:10:25.023Z,7.19
2023-01-24T23:13:10.323Z,7.19
2023-01-24T23:15:55.824Z,7.22
2023-01-24T23:18:44.436Z,7.25
2023-01-24T23:21:35.860Z,7.23
2023-01-24T23:24:03.304Z,7.22
2023-01-24T23:26:30.736Z,7.19
2023-01-24T23:29:20.375Z,7.19
2023-01-24T23:31:48.378Z,7.14
2023-01-24T23:34:33.303Z,7.10
2023-01-24T23:36:59.993Z,7.06
2023-01-24T23:39:26.786Z,7.09
2023-01-24T23:41:53.496Z,7.12
2023-01-24T23:44:22.924Z,7.13
2023-01-24T23:46:49.578Z,7.12
2023-01-24T23:49:16.292Z,7.14
2023-01-24T23:51:43.140Z,7.09
2023-01-24T23:54:09.901Z,7.14
2023-01-24T23:56:36.585Z,7.12
2023-01-24T23:59:03.210Z,7.08
